Time;durP1;ratioP1;P1;durP2;ratioP2;P2;SDS_P1;SDS_P2;PMS_P1;PMS_P2;Temp;Humidity;BMP_temperature;BMP_pressure;BME280_temperature;BME280_humidity;BME280_pressure;Samples;Min_cycle;Max_cycle;Signal;HPM_P1;HPM_P2
2021/01/04 00:01:14;;;;;;;26.23;17.10;;;;;;;1.65;100.00;101238.25;4999121;28;20068;-87
2021/01/04 00:03:42;;;;;;;22.17;14.77;;;;;;;1.64;100.00;101237.41;4999232;28;20026;-91
2021/01/04 00:06:23;;;;;;;20.95;14.05;;;;;;;1.62;100.00;101241.91;5010588;28;20034;-89
2021/01/04 00:09:07;;;;;;;21.88;14.57;;;;;;;1.65;100.00;101230.31;4974566;28;20487;-90
2021/01/04 00:11:42;;;;;;;19.00;13.73;;;;;;;1.62;100.00;101241.06;5015784;28;20041;-87
2021/01/04 00:14:16;;;;;;;20.05;15.35;;;;;;;1.64;100.00;101241.81;4997617;28;20312;-87
2021/01/04 00:16:57;;;;;;;20.23;13.05;;;;;;;1.60;100.00;101235.03;5009856;28;20038;-87
2021/01/04 00:19:49;;;;;;;19.45;13.95;;;;;;;1.62;100.00;101231.34;5009453;28;20045;-89
2021/01/04 00:22:44;;;;;;;18.52;12.93;;;;;;;1.61;100.00;101228.78;5010763;28;20037;-89
2021/01/04 00:25:30;;;;;;;19.35;14.07;;;;;;;1.57;100.00;101228.97;4997093;28;20064;-88
2021/01/04 00:28:04;;;;;;;18.50;12.55;;;;;;;1.57;100.00;101231.63;4994261;28;20068;-90
2021/01/04 00:30:40;;;;;;;17.40;12.18;;;;;;;1.56;100.00;101232.56;5011268;28;20038;-92
2021/01/04 00:33:20;;;;;;;14.32;10.95;;;;;;;1.55;100.00;101243.22;5013637;28;20034;-88
2021/01/04 00:35:53;;;;;;;17.52;12.63;;;;;;;1.54;100.00;101239.75;4995810;28;20050;-87
2021/01/04 00:38:33;;;;;;;16.38;11.30;;;;;;;1.54;100.00;101239.75;4994799;28;20037;-89
2021/01/04 00:41:20;;;;;;;16.50;12.07;;;;;;;1.53;100.00;101243.34;4993137;28;20434;-88
2021/01/04 00:43:51;;;;;;;16.38;11.73;;;;;;;1.53;100.00;101243.34;4992950;28;20049;-88
2021/01/04 00:46:22;;;;;;;16.73;11.10;;;;;;;1.49;100.00;101255.03;4998469;28;20107;-91
2021/01/04 00:48:57;;;;;;;16.85;11.77;;;;;;;1.53;100.00;101247.78;4997794;28;20107;-87
2021/01/04 00:51:49;;;;;;;16.05;11.32;;;;;;;1.52;100.00;101246.06;5007365;28;20131;-88
2021/01/04 00:54:40;;;;;;;15.38;10.38;;;;;;;1.48;100.00;101244.56;4979032;28;20419;-90
2021/01/04 00:57:28;;;;;;;17.88;12.07;;;;;;;1.45;100.00;101245.59;4975418;28;20141;-87
2021/01/04 01:00:18;;;;;;;17.73;11.48;;;;;;;1.47;100.00;101249.00;4991542;28;20038;-90
2021/01/04 01:02:52;;;;;;;16.98;11.85;;;;;;;1.44;100.00;101248.34;4993355;28;20490;-89
2021/01/04 01:05:37;;;;;;;17.05;12.38;;;;;;;1.43;100.00;101244.00;5012755;28;20148;-91
2021/01/04 01:08:08;;;;;;;17.45;11.90;;;;;;;1.44;100.00;101248.34;4977160;28;20184;-90
2021/01/04 01:10:46;;;;;;;17.50;12.32;;;;;;;1.46;100.00;101251.75;4991672;28;20058;-90
2021/01/04 01:13:26;;;;;;;19.48;12.07;;;;;;;1.44;100.00;101243.91;5010161;28;20034;-90
2021/01/04 01:15:57;;;;;;;16.63;11.90;;;;;;;1.43;100.00;101244.84;5008772;28;20089;-93
2021/01/04 01:18:34;;;;;;;18.60;12.98;;;;;;;1.42;100.00;101243.16;5011373;28;20044;-90
2021/01/04 01:21:03;;;;;;;19.98;13.15;;;;;;;1.39;100.00;101251.28;5012219;28;20045;-90
2021/01/04 01:23:29;;;;;;;;;;;;;;;1.43;100.00;101255.41;5007977;28;20041;-89
2021/01/04 01:26:15;;;;;;;18.25;13.25;;;;;;;1.35;100.00;101249.75;4971671;28;19917;-88
2021/01/04 01:28:55;;;;;;;18.15;13.05;;;;;;;1.35;100.00;101249.75;5008946;28;20038;-90
2021/01/04 01:31:56;;;;;;;16.63;12.88;;;;;;;1.37;100.00;101253.16;5005792;28;20038;-91
2021/01/04 01:34:48;;;;;;;19.83;13.88;;;;;;;1.37;100.00;101255.81;4992060;28;20037;-88
2021/01/04 01:37:51;;;;;;;18.70;14.15;;;;;;;1.41;100.00;101265.28;4994916;28;20042;-86
2021/01/04 01:40:54;;;;;;;18.25;11.65;;;;;;;1.38;100.00;101254.00;4993260;28;20042;-88
2021/01/04 01:43:44;;;;;;;20.02;13.30;;;;;;;1.40;100.00;101262.69;4992042;28;20125;-92
2021/01/04 01:46:32;;;;;;;17.65;12.85;;;;;;;1.37;100.00;101258.44;5008860;28;20034;-90
2021/01/04 01:49:19;;;;;;;18.23;12.73;;;;;;;1.36;100.00;101264.69;4990884;28;20053;-89
2021/01/04 01:52:28;;;;;;;19.90;13.68;;;;;;;1.37;100.00;101274.31;5010691;28;20119;-87
2021/01/04 01:55:16;;;;;;;17.67;12.15;;;;;;;1.35;100.00;101274.41;4970625;28;20034;-90
2021/01/04 01:58:21;;;;;;;19.67;14.30;;;;;;;1.35;100.00;101265.63;5010500;28;20041;-88
2021/01/04 02:00:56;;;;;;;20.08;12.98;;;;;;;1.33;100.00;101267.53;4971930;28;20268;-88
2021/01/04 02:03:39;;;;;;;18.77;12.85;;;;;;;1.32;100.00;101271.09;4998621;28;20133;-89
2021/01/04 02:06:17;;;;;;;16.13;12.18;;;;;;;1.35;100.00;101270.91;5001254;28;20037;-91
2021/01/04 02:08:47;;;;;;;18.10;12.93;;;;;;;1.37;100.00;101271.66;4990870;28;20080;-91
2021/01/04 02:11:32;;;;;;;19.38;13.30;;;;;;;1.35;100.00;101266.50;4991356;28;20042;-91
2021/01/04 02:14:04;;;;;;;17.58;12.20;;;;;;;1.33;100.00;101267.53;4994494;28;20049;-90
2021/01/04 02:16:37;;;;;;;17.88;13.35;;;;;;;1.33;100.00;101273.66;5004186;28;20037;-90
2021/01/04 02:19:37;;;;;;;18.75;13.60;;;;;;;1.36;100.00;101272.63;5011747;28;20036;-90
2021/01/04 02:22:37;;;;;;;18.40;12.85;;;;;;;1.35;100.00;101270.91;4969995;28;20466;-89
2021/01/04 02:25:03;;;;;;;17.50;12.85;;;;;;;1.34;100.00;101282.44;4977641;28;20046;-89
2021/01/04 02:27:33;;;;;;;20.63;14.80;;;;;;;1.37;100.00;101284.88;5019647;28;20038;-89
2021/01/04 02:29:59;;;;;;;19.17;13.23;;;;;;;1.33;100.00;101283.38;4994078;28;20046;-88
2021/01/04 02:32:25;;;;;;;18.98;13.73;;;;;;;1.33;100.00;101288.69;5008410;28;20042;-87
2021/01/04 02:34:53;;;;;;;19.00;13.55;;;;;;;1.35;100.00;101284.13;5011041;28;20048;-92
2021/01/04 02:37:21;;;;;;;21.00;14.23;;;;;;;1.34;100.00;101279.78;5010448;28;20069;-89
2021/01/04 02:39:52;;;;;;;20.90;14.75;;;;;;;1.35;100.00;101289.41;4992571;28;20041;-87
2021/01/04 02:42:29;;;;;;;21.00;14.20;;;;;;;1.34;100.00;101285.06;5019334;28;20038;-89
2021/01/04 02:44:56;;;;;;;21.75;15.45;;;;;;;1.31;100.00;101288.75;4993642;28;20120;-89
2021/01/04 02:47:27;;;;;;;21.15;15.93;;;;;;;1.37;100.00;101278.75;4992157;28;20363;-90
2021/01/04 02:49:59;;;;;;;19.92;14.32;;;;;;;1.32;100.00;101286.97;5010778;28;20048;-90
2021/01/04 02:52:46;;;;;;;22.80;15.10;;;;;;;1.34;100.00;101285.06;5008474;28;20034;-91
2021/01/04 02:55:19;;;;;;;23.92;15.73;;;;;;;1.33;100.00;101288.69;4993682;28;20034;-90
2021/01/04 02:58:06;;;;;;;22.10;15.43;;;;;;;1.34;100.00;101291.22;4991868;28;20096;-89
2021/01/04 03:00:33;;;;;;;21.20;14.75;;;;;;;1.33;100.00;101289.53;4994579;28;20038;-86
2021/01/04 03:03:01;;;;;;;23.35;16.30;;;;;;;1.35;100.00;101287.66;4975908;28;20060;-88
2021/01/04 03:05:27;;;;;;;23.77;16.70;;;;;;;1.39;100.00;101280.38;5009927;28;20058;-90
2021/01/04 03:08:02;;;;;;;21.63;16.52;;;;;;;1.38;100.00;101280.44;4976577;28;20080;-88
2021/01/04 03:10:37;;;;;;;23.45;16.30;;;;;;;1.37;100.00;101278.75;5007429;28;20034;-88
2021/01/04 03:13:14;;;;;;;22.58;15.98;;;;;;;1.36;100.00;101272.63;5010757;28;20041;-87
2021/01/04 03:16:02;;;;;;;22.88;15.77;;;;;;;1.38;100.00;101268.06;5001916;28;20046;-90
2021/01/04 03:18:37;;;;;;;21.00;14.85;;;;;;;1.42;100.00;101274.88;5008810;28;20034;-90
2021/01/04 03:21:05;;;;;;;21.52;15.25;;;;;;;1.43;100.00;101273.94;5007555;28;20065;-92
2021/01/04 03:23:31;;;;;;;19.83;14.27;;;;;;;1.42;100.00;101271.41;5008513;28;20574;-88
2021/01/04 03:26:05;;;;;;;20.77;14.45;;;;;;;1.42;100.00;101276.69;5009586;28;20342;-87
2021/01/04 03:28:31;;;;;;;19.75;13.77;;;;;;;1.41;100.00;101274.97;4997286;28;20043;-89
2021/01/04 03:30:58;;;;;;;19.73;13.45;;;;;;;1.42;100.00;101271.41;5011676;28;20041;-86
2021/01/04 03:33:24;;;;;;;19.58;13.98;;;;;;;1.44;100.00;101273.00;4994533;28;20042;-91
2021/01/04 03:35:50;;;;;;;21.23;14.32;;;;;;;1.44;100.00;101273.00;5010532;28;20413;-91
2021/01/04 03:38:17;;;;;;;18.40;13.15;;;;;;;1.42;100.00;101274.88;5011461;28;20046;-88
2021/01/04 03:40:43;;;;;;;18.40;13.25;;;;;;;1.42;100.00;101279.34;5013300;28;20061;-89
2021/01/04 03:43:09;;;;;;;20.27;13.13;;;;;;;1.43;100.00;101270.44;4996048;28;20042;-92
2021/01/04 03:45:34;;;;;;;18.88;13.82;;;;;;;1.43;100.00;101268.66;4996179;28;20034;-91
2021/01/04 03:48:00;;;;;;;20.80;14.25;;;;;;;1.45;100.00;101258.84;5013454;28;20120;-87
2021/01/04 03:50:25;;;;;;;19.77;13.88;;;;;;;1.44;100.00;101259.78;4997101;28;20121;-90
2021/01/04 03:52:51;;;;;;;19.27;13.20;;;;;;;1.46;100.00;101263.16;5012758;28;20319;-87
2021/01/04 03:55:17;;;;;;;18.40;13.43;;;;;;;1.46;100.00;101262.31;4981458;28;20125;-87
2021/01/04 03:57:43;;;;;;;17.30;13.32;;;;;;;1.43;100.00;101260.72;5006806;28;20053;-89
2021/01/04 04:00:11;;;;;;;19.02;13.40;;;;;;;1.45;100.00;101255.34;4998284;28;20049;-89
2021/01/04 04:02:36;;;;;;;16.80;11.98;;;;;;;1.46;100.00;101260.53;4996976;28;20100;-89
2021/01/04 04:05:04;;;;;;;17.42;11.32;;;;;;;1.43;100.00;101258.06;5009676;28;20038;-90
2021/01/04 04:07:30;;;;;;;17.73;12.35;;;;;;;1.47;100.00;101253.47;5010887;28;20395;-88
2021/01/04 04:09:55;;;;;;;17.20;12.93;;;;;;;1.46;100.00;101265.81;4961769;28;20042;-89
2021/01/04 04:12:20;;;;;;;18.33;12.65;;;;;;;1.45;100.00;101266.75;4997070;28;20072;-88
2021/01/04 04:14:48;;;;;;;17.50;12.63;;;;;;;1.45;100.00;101266.75;4994326;28;20046;-92
2021/01/04 04:17:15;;;;;;;17.73;12.20;;;;;;;1.45;100.00;101264.13;4996529;28;20033;-87
2021/01/04 04:19:44;;;;;;;18.15;12.20;;;;;;;1.46;100.00;101257.03;4995575;28;20034;-88
2021/01/04 04:22:09;;;;;;;20.42;13.80;;;;;;;1.47;100.00;101253.47;4995902;28;20041;-91
2021/01/04 04:24:39;;;;;;;17.52;11.73;;;;;;;1.49;100.00;101256.84;4995518;28;20398;-88
2021/01/04 04:27:09;;;;;;;14.05;9.90;;;;;;;1.40;100.00;101268.84;5012091;28;20030;-88
2021/01/04 04:29:37;;;;;;;15.82;11.40;;;;;;;1.43;100.00;101268.66;5012418;28;20072;-88
2021/01/04 04:32:02;;;;;;;15.23;11.02;;;;;;;1.45;100.00;101263.28;4996410;28;20526;-89
2021/01/04 04:34:28;;;;;;;14.07;10.98;;;;;;;1.44;100.00;101262.44;4982657;28;20046;-90
2021/01/04 04:36:53;;;;;;;14.27;10.32;;;;;;;1.45;100.00;101271.22;5015790;28;20040;-89
2021/01/04 04:39:19;;;;;;;12.73;9.32;;;;;;;1.43;100.00;101271.28;4995172;28;20559;-90
2021/01/04 04:41:47;;;;;;;12.20;9.45;;;;;;;1.41;100.00;101264.38;4991534;28;20034;-88
2021/01/04 04:44:24;;;;;;;11.45;8.82;;;;;;;1.41;100.00;101265.28;4994769;28;20088;-86
2021/01/04 04:47:02;;;;;;;11.50;8.35;;;;;;;1.41;100.00;101267.91;4981666;28;20119;-88
2021/01/04 04:50:00;;;;;;;9.60;6.80;;;;;;;1.36;100.00;101259.41;5007678;28;20100;-88
2021/01/04 04:52:27;;;;;;;12.95;9.48;;;;;;;1.39;100.00;101271.59;5006640;28;20030;-89
2021/01/04 04:55:12;;;;;;;11.40;8.77;;;;;;;1.38;100.00;101276.00;4995578;28;20034;-88
2021/01/04 04:57:45;;;;;;;11.48;8.32;;;;;;;1.37;100.00;101284.88;5010373;28;20030;-88
2021/01/04 05:00:22;;;;;;;10.98;8.30;;;;;;;1.37;100.00;101284.03;5011924;28;20045;-90
2021/01/04 05:02:59;;;;;;;10.57;8.10;;;;;;;1.37;100.00;101292.81;4991506;28;20128;-90
2021/01/04 05:05:52;;;;;;;10.60;7.35;;;;;;;1.36;100.00;101291.13;5008985;28;20030;-89
2021/01/04 05:08:44;;;;;;;12.98;9.27;;;;;;;1.35;100.00;101292.06;4986572;28;20061;-88
2021/01/04 05:11:11;;;;;;;12.27;8.73;;;;;;;1.35;100.00;101294.69;4982886;28;20038;-90
2021/01/04 05:13:40;;;;;;;14.05;10.02;;;;;;;1.39;100.00;101292.75;4994865;28;20046;-88
2021/01/04 05:16:08;;;;;;;;;;;;;;;1.36;100.00;101293.78;5013741;28;20041;-87
2021/01/04 05:19:04;;;;;;;13.95;10.65;;;;;;;1.27;100.00;101294.34;4993981;28;20408;-88
2021/01/04 05:21:48;;;;;;;16.80;9.95;;;;;;;1.27;100.00;101289.06;5012444;28;20615;-90
2021/01/04 05:24:22;;;;;;;11.27;7.85;;;;;;;1.27;100.00;101300.47;4995300;28;20064;-90
2021/01/04 05:26:48;;;;;;;14.38;9.18;;;;;;;1.31;100.00;101301.13;4999595;28;20054;-88
2021/01/04 05:29:16;;;;;;;13.15;8.90;;;;;;;1.31;100.00;101296.69;5004322;28;20121;-91
2021/01/04 05:32:03;;;;;;;12.93;9.38;;;;;;;1.34;100.00;101300.94;5004319;28;20549;-90
2021/01/04 05:34:34;;;;;;;11.98;9.40;;;;;;;1.37;100.00;101310.50;4994759;28;20089;-89
2021/01/04 05:37:25;;;;;;;12.75;9.38;;;;;;;1.37;100.00;101307.84;4995091;28;20108;-89
2021/01/04 05:40:21;;;;;;;13.38;9.52;;;;;;;1.37;100.00;101313.13;5007850;28;20449;-87
2021/01/04 05:43:02;;;;;;;12.25;9.40;;;;;;;1.35;100.00;101308.81;4988945;28;20073;-90
2021/01/04 05:45:59;;;;;;;11.93;8.85;;;;;;;1.35;100.00;101313.22;4991226;28;20034;-90
2021/01/04 05:48:51;;;;;;;14.65;9.63;;;;;;;1.32;100.00;101316.91;4980575;28;20437;-90
2021/01/04 05:51:22;;;;;;;13.52;10.85;;;;;;;1.32;100.00;101316.91;4995319;28;20406;-91
2021/01/04 05:53:49;;;;;;;14.43;10.18;;;;;;;1.34;100.00;101315.00;4992314;28;20053;-88
2021/01/04 05:56:24;;;;;;;14.23;10.45;;;;;;;1.31;100.00;101319.63;4996855;28;20034;-90
2021/01/04 05:59:13;;;;;;;16.10;11.32;;;;;;;1.34;100.00;101324.75;4984918;28;20121;-88
2021/01/04 06:01:41;;;;;;;14.55;10.57;;;;;;;1.33;100.00;101323.91;4994868;28;20168;-93
2021/01/04 06:04:14;;;;;;;14.02;10.30;;;;;;;1.31;100.00;101322.28;5013698;28;20107;-89
2021/01/04 06:07:01;;;;;;;16.27;12.10;;;;;;;1.34;100.00;101322.94;4994124;28;20046;-89
2021/01/04 06:09:28;;;;;;;17.30;11.35;;;;;;;1.31;100.00;101327.56;5010954;28;20460;-92
2021/01/04 06:11:56;;;;;;;18.05;12.23;;;;;;;1.34;100.00;101332.69;5002928;28;20070;-89
2021/01/04 06:14:25;;;;;;;18.83;13.13;;;;;;;1.37;100.00;101332.50;5000016;28;20030;-86
2021/01/04 06:17:04;;;;;;;16.80;11.27;;;;;;;1.30;100.00;101326.72;5017212;28;20070;-90
2021/01/04 06:19:34;;;;;;;16.10;11.77;;;;;;;1.34;100.00;101330.03;4997704;28;20072;-91
2021/01/04 06:22:09;;;;;;;15.40;10.70;;;;;;;1.30;100.00;101326.72;4998595;28;20117;-90
2021/01/04 06:24:37;;;;;;;14.10;10.25;;;;;;;1.29;100.00;101330.28;4983905;28;20065;-90
2021/01/04 06:27:40;;;;;;;15.23;10.18;;;;;;;1.29;100.00;101334.75;4992511;28;20053;-93
2021/01/04 06:30:34;;;;;;;13.90;9.70;;;;;;;1.26;100.00;101341.06;4981028;28;20092;-88
2021/01/04 06:33:16;;;;;;;13.75;8.65;;;;;;;1.22;100.00;101339.53;4981711;28;20545;-91
2021/01/04 06:36:00;;;;;;;14.80;9.70;;;;;;;1.18;100.00;101347.75;4980947;28;20050;-93
2021/01/04 06:38:32;;;;;;;17.38;10.30;;;;;;;1.22;100.00;101349.28;4990415;28;20371;-90
2021/01/04 06:41:11;;;;;;;13.70;8.82;;;;;;;1.21;100.00;101352.84;4993005;28;20111;-90
2021/01/04 06:43:39;;;;;;;13.95;10.23;;;;;;;1.22;100.00;101355.41;5009317;28;20415;-86
2021/01/04 06:46:28;;;;;;;14.95;9.63;;;;;;;1.19;100.00;101349.47;5008685;28;20054;-89
2021/01/04 06:49:18;;;;;;;16.02;10.60;;;;;;;1.20;100.00;101362.56;4994497;28;20056;-92
2021/01/04 06:51:48;;;;;;;17.20;10.93;;;;;;;1.20;100.00;101357.28;4999276;28;20108;-88
2021/01/04 06:54:30;;;;;;;15.80;10.20;;;;;;;1.20;100.00;101359.09;4993292;28;20042;-86
2021/01/04 06:57:15;;;;;;;15.75;10.10;;;;;;;1.16;100.00;101369.00;4989825;28;20049;-89
2021/01/04 07:00:00;;;;;;;16.80;11.07;;;;;;;1.20;100.00;101356.44;4995961;28;20038;-87
2021/01/04 07:02:50;;;;;;;16.55;11.48;;;;;;;1.20;100.00;101361.72;5007507;28;20044;-87
2021/01/04 07:05:38;;;;;;;17.23;12.23;;;;;;;1.13;100.00;101367.38;5021093;28;20037;-91
2021/01/04 07:08:51;;;;;;;16.52;11.00;;;;;;;1.16;100.00;101361.06;4994802;28;20034;-89
2021/01/04 07:11:45;;;;;;;18.45;11.55;;;;;;;1.16;100.00;101369.00;4945066;28;20169;-88
2021/01/04 07:14:19;;;;;;;16.30;11.65;;;;;;;1.13;100.00;101366.53;4977925;28;20562;-89
2021/01/04 07:17:04;;;;;;;17.23;11.75;;;;;;;1.12;100.00;101370.97;4991376;28;20053;-88
2021/01/04 07:19:59;;;;;;;17.30;11.77;;;;;;;1.17;100.00;101378.63;4991703;28;20572;-89
2021/01/04 07:22:52;;;;;;;19.20;12.57;;;;;;;1.18;100.00;101374.19;5007339;28;20129;-93
2021/01/04 07:25:31;;;;;;;16.98;11.70;;;;;;;1.16;100.00;101370.78;4992256;28;20390;-88
2021/01/04 07:28:18;;;;;;;19.15;12.18;;;;;;;1.19;100.00;101370.63;4976155;28;20034;-88
2021/01/04 07:31:10;;;;;;;19.35;12.18;;;;;;;1.19;100.00;101373.25;5009809;28;20103;-89
2021/01/04 07:33:45;;;;;;;19.95;12.48;;;;;;;1.21;100.00;101387.22;4991975;28;20038;-89
2021/01/04 07:36:39;;;;;;;19.98;11.57;;;;;;;1.19;100.00;101381.19;4997039;28;20066;-90
2021/01/04 07:39:31;;;;;;;22.42;13.07;;;;;;;1.17;100.00;101383.91;4993745;28;20490;-89
2021/01/04 07:42:06;;;;;;;19.02;11.98;;;;;;;1.19;100.00;101382.03;4977484;28;20459;-90
2021/01/04 07:45:08;;;;;;;20.52;13.02;;;;;;;1.19;100.00;101389.13;4991674;28;20040;-89
2021/01/04 07:47:55;;;;;;;20.65;12.35;;;;;;;1.17;100.00;101396.28;4998682;28;20042;-90
2021/01/04 07:51:16;;;;;;;19.67;12.75;;;;;;;1.19;100.00;101397.91;4989901;28;20073;-92
2021/01/04 07:54:13;;;;;;;21.75;13.40;;;;;;;1.18;100.00;101393.56;4931230;29;20048;-89
2021/01/04 07:57:20;;;;;;;18.58;11.85;;;;;;;1.18;100.00;101400.63;5007410;28;20057;-91
2021/01/04 07:59:55;;;;;;;19.80;11.98;;;;;;;1.13;100.00;101404.38;4959762;28;20050;-94
2021/01/04 08:02:30;;;;;;;23.92;13.00;;;;;;;1.15;100.00;101396.34;5007204;28;20057;-91
2021/01/04 08:05:18;;;;;;;18.60;12.50;;;;;;;1.15;100.00;101403.44;5007390;28;20042;-90
2021/01/04 08:08:21;;;;;;;18.97;12.40;;;;;;;1.08;100.00;101406.44;4988316;28;20038;-90
2021/01/04 08:11:08;;;;;;;21.90;13.07;;;;;;;1.10;100.00;101404.56;5008434;28;20257;-91
2021/01/04 08:14:11;;;;;;;18.60;12.32;;;;;;;1.07;100.00;101407.38;4999491;28;20045;-91
2021/01/04 08:16:49;;;;;;;20.00;13.52;;;;;;;1.07;100.00;101411.84;4990714;28;20057;-87
2021/01/04 08:19:18;;;;;;;21.83;14.02;;;;;;;1.07;100.00;101406.53;5005520;28;20041;-90
2021/01/04 08:22:08;;;;;;;20.37;12.63;;;;;;;1.10;100.00;101409.00;5008572;28;20049;-92
2021/01/04 08:24:41;;;;;;;21.65;14.25;;;;;;;1.08;100.00;101416.16;5009561;28;20277;-87
2021/01/04 08:27:42;;;;;;;24.30;13.82;;;;;;;1.12;100.00;101423.84;4998420;28;20257;-90
2021/01/04 08:30:18;;;;;;;23.20;13.98;;;;;;;1.09;100.00;101429.31;4948140;28;20038;-87
2021/01/04 08:33:05;;;;;;;24.17;15.32;;;;;;;1.12;100.00;101429.13;4992345;28;20069;-90
2021/01/04 08:35:35;;;;;;;22.35;14.77;;;;;;;1.13;100.00;101425.53;5008644;28;20104;-88
2021/01/04 08:38:27;;;;;;;22.77;14.60;;;;;;;1.13;100.00;101425.53;4991320;28;20037;-88
2021/01/04 08:41:05;;;;;;;24.02;15.32;;;;;;;1.16;100.00;101429.81;5015350;28;20053;-88
2021/01/04 08:43:35;;;;;;;22.83;15.57;;;;;;;1.17;100.00;101420.06;5007265;28;20091;-86
2021/01/04 08:46:25;;;;;;;23.35;14.98;;;;;;;1.20;100.00;101430.47;4994989;28;20066;-87
2021/01/04 08:49:11;;;;;;;23.48;15.02;;;;;;;1.19;100.00;101437.56;4991057;28;20048;-89
2021/01/04 08:51:39;;;;;;;22.63;14.15;;;;;;;1.21;100.00;101430.41;4995518;28;20045;-92
2021/01/04 08:54:10;;;;;;;25.73;16.80;;;;;;;1.25;100.00;101423.97;4996412;28;20038;-91
2021/01/04 08:56:40;;;;;;;26.00;16.02;;;;;;;1.24;100.00;101432.00;4992559;28;20356;-90
2021/01/04 08:59:09;;;;;;;26.00;16.33;;;;;;;1.24;100.00;101439.94;5010127;28;20391;-89
2021/01/04 09:01:35;;;;;;;;;;;;;;;1.25;100.00;101439.00;5011743;28;21556;-89
2021/01/04 09:04:10;;;;;;;25.52;15.80;;;;;;;1.21;100.00;101442.75;5012204;28;20356;-90
2021/01/04 09:06:43;;;;;;;24.67;15.50;;;;;;;1.24;100.00;101438.16;4979208;28;20052;-88
2021/01/04 09:09:17;;;;;;;21.95;15.30;;;;;;;1.26;100.00;101446.81;5009222;28;20042;-88
2021/01/04 09:12:05;;;;;;;28.23;16.80;;;;;;;1.31;100.00;101444.78;4995980;28;20049;-90
2021/01/04 09:14:50;;;;;;;27.52;16.45;;;;;;;1.35;100.00;101445.44;5009089;28;20038;-90
2021/01/04 09:17:34;;;;;;;25.65;16.30;;;;;;;1.34;100.00;101443.75;5011020;28;20026;-88
2021/01/04 09:20:08;;;;;;;29.23;17.08;;;;;;;1.35;100.00;101443.69;4989161;28;20034;-89
2021/01/04 09:22:33;;;;;;;27.67;16.92;;;;;;;1.38;100.00;101444.41;5007707;28;20029;-91
2021/01/04 09:24:59;;;;;;;26.55;15.35;;;;;;;1.37;100.00;101443.56;4995143;28;20038;-90
2021/01/04 09:27:33;;;;;;;28.13;16.52;;;;;;;1.42;100.00;101446.81;5010890;28;20042;-89
2021/01/04 09:30:09;;;;;;;25.90;16.30;;;;;;;1.42;100.00;101454.75;4994181;28;20042;-89
2021/01/04 09:32:42;;;;;;;25.25;14.52;;;;;;;1.39;100.00;101444.34;4992589;28;20119;-91
2021/01/04 09:35:15;;;;;;;25.70;16.95;;;;;;;1.43;100.00;101445.84;5011525;28;20034;-88
2021/01/04 09:37:40;;;;;;;26.17;16.10;;;;;;;1.46;100.00;101445.66;4996011;28;20250;-90
2021/01/04 09:40:10;;;;;;;26.42;16.70;;;;;;;1.46;100.00;101452.75;4996221;28;20064;-88
2021/01/04 09:42:36;;;;;;;27.50;15.20;;;;;;;1.46;100.00;101445.66;4993076;28;20046;-91
2021/01/04 09:45:18;;;;;;;26.17;14.68;;;;;;;1.47;100.00;101450.03;5016757;28;20071;-89
2021/01/04 09:47:50;;;;;;;27.17;16.83;;;;;;;1.49;100.00;101440.19;4988408;28;20098;-88
2021/01/04 09:50:28;;;;;;;27.55;17.05;;;;;;;1.53;100.00;101438.25;4992728;28;20036;-88
2021/01/04 09:53:05;;;;;;;28.63;17.50;;;;;;;1.55;100.00;101439.88;4978196;28;20050;-88
2021/01/04 09:55:36;;;;;;;26.35;16.23;;;;;;;1.54;100.00;101438.16;4992130;28;20096;-87
2021/01/04 09:58:11;;;;;;;26.00;16.23;;;;;;;1.56;100.00;101444.19;4997923;28;20041;-91
2021/01/04 10:00:39;;;;;;;28.13;16.20;;;;;;;1.58;100.00;101437.03;4994601;28;20727;-88
2021/01/04 10:03:12;;;;;;;29.50;18.15;;;;;;;1.62;100.00;101439.50;5006611;28;20046;-88
2021/01/04 10:05:43;;;;;;;30.10;16.85;;;;;;;1.64;100.00;101433.19;5007539;28;20068;-87
2021/01/04 10:08:18;;;;;;;28.05;15.93;;;;;;;1.65;100.00;101437.50;5014446;28;20041;-87
2021/01/04 10:10:55;;;;;;;26.38;15.95;;;;;;;1.68;100.00;101437.34;4993714;28;20061;-93
2021/01/04 10:13:22;;;;;;;29.40;16.75;;;;;;;1.69;100.00;101432.88;5006864;28;20848;-88
2021/01/04 10:15:51;;;;;;;28.80;16.17;;;;;;;1.71;100.00;101431.00;5007104;28;20049;-88
2021/01/04 10:18:32;;;;;;;28.90;15.15;;;;;;;1.73;100.00;101429.13;4991939;28;20085;-88
2021/01/04 10:20:58;;;;;;;31.25;16.63;;;;;;;1.76;100.00;101423.66;5006941;28;20056;-85
2021/01/04 10:23:30;;;;;;;29.40;16.80;;;;;;;1.80;100.00;101422.50;5003291;28;20502;-87
2021/01/04 10:25:59;;;;;;;25.70;16.27;;;;;;;1.82;100.00;101427.72;4986623;28;20068;-92
2021/01/04 10:28:30;;;;;;;28.97;16.50;;;;;;;1.85;100.00;101427.53;4961893;28;20049;-88
2021/01/04 10:31:09;;;;;;;28.65;16.67;;;;;;;1.85;100.00;101428.38;5010785;28;20397;-88
2021/01/04 10:33:38;;;;;;;31.70;16.25;;;;;;;1.87;100.00;101421.22;4988631;28;20072;-86
2021/01/04 10:36:18;;;;;;;31.08;18.05;;;;;;;1.89;100.00;101429.88;4992738;28;20382;-87
2021/01/04 10:38:48;;;;;;;29.48;16.10;;;;;;;1.91;100.00;101417.44;5004756;28;20034;-88
2021/01/04 10:41:16;;;;;;;30.15;16.55;;;;;;;1.95;100.00;101416.28;5003735;28;20061;-88
2021/01/04 10:43:43;;;;;;;26.75;16.48;;;;;;;1.98;100.00;101417.91;5003257;28;20046;-90
2021/01/04 10:46:35;;;;;;;27.48;16.90;;;;;;;1.98;100.00;101424.03;4989703;28;20125;-87
2021/01/04 10:49:08;;;;;;;30.30;17.58;;;;;;;2.01;100.00;101410.63;4958503;28;20046;-91
2021/01/04 10:51:49;;;;;;;29.20;17.77;;;;;;;2.00;100.00;101406.28;4993508;28;20096;-89
2021/01/04 10:54:22;;;;;;;26.17;16.17;;;;;;;2.03;100.00;101400.78;5000992;28;20056;-89
2021/01/04 10:57:35;;;;;;;25.50;16.10;;;;;;;2.06;100.00;101404.19;4986976;28;20041;-89
2021/01/04 11:00:17;;;;;;;29.95;18.77;;;;;;;2.08;100.00;101392.56;4963455;28;20056;-91
2021/01/04 11:02:45;;;;;;;25.60;14.95;;;;;;;2.07;100.00;101392.66;5012398;28;20092;-90
2021/01/04 11:05:14;;;;;;;24.70;16.55;;;;;;;2.12;100.00;101393.22;4990202;28;20038;-89
2021/01/04 11:07:40;;;;;;;23.50;15.77;;;;;;;2.16;100.00;101387.66;4982564;28;20070;-87
2021/01/04 11:10:40;;;;;;;25.55;15.90;;;;;;;2.17;100.00;101388.50;5011428;28;20061;-88
2021/01/04 11:13:05;;;;;;;21.50;13.98;;;;;;;2.14;100.00;101388.69;4970605;28;20045;-88
2021/01/04 11:15:34;;;;;;;24.42;14.02;;;;;;;2.16;100.00;101384.16;4993829;28;20061;-88
2021/01/04 11:18:11;;;;;;;25.52;14.68;;;;;;;2.20;100.00;101381.22;5009998;28;20054;-91
2021/01/04 11:20:39;;;;;;;20.80;14.55;;;;;;;2.22;100.00;101374.03;4994791;28;20449;-90
2021/01/04 11:23:10;;;;;;;24.90;16.52;;;;;;;2.25;100.00;101378.28;5006111;28;20038;-88
2021/01/04 11:25:36;;;;;;;23.90;16.05;;;;;;;2.26;100.00;101367.56;4989446;28;20061;-89
2021/01/04 11:28:02;;;;;;;21.60;13.75;;;;;;;2.27;100.00;101371.06;4990859;28;20076;-88
2021/01/04 11:30:29;;;;;;;23.08;14.80;;;;;;;2.32;100.00;101363.69;5004514;28;20046;-88
2021/01/04 11:32:58;;;;;;;20.23;13.30;;;;;;;2.32;100.00;101358.41;5006810;28;20080;-87
2021/01/04 11:35:24;;;;;;;;;;;;;;;2.34;100.00;101359.16;5002689;28;20048;-88
2021/01/04 11:37:51;;;;;;;17.90;12.55;;;;;;;2.26;100.00;101364.09;5009414;28;19921;-88
2021/01/04 11:40:17;;;;;;;20.35;13.57;;;;;;;2.28;100.00;101354.25;4995642;28;20045;-87
2021/01/04 11:42:43;;;;;;;17.55;12.40;;;;;;;2.33;100.00;101360.13;5000010;28;20049;-87
2021/01/04 11:45:14;;;;;;;16.33;11.90;;;;;;;2.36;100.00;101359.03;4996440;28;20046;-90
2021/01/04 11:47:40;;;;;;;18.45;12.65;;;;;;;2.38;100.00;101358.00;4986959;28;20042;-90
2021/01/04 11:50:08;;;;;;;23.33;13.57;;;;;;;2.40;100.00;101352.63;5013373;28;20586;-91
2021/01/04 11:52:35;;;;;;;16.60;11.57;;;;;;;2.41;100.00;101351.66;5007300;28;20490;-92
2021/01/04 11:55:07;;;;;;;17.30;11.88;;;;;;;2.39;100.00;101354.44;5006661;28;20045;-90
2021/01/04 11:57:32;;;;;;;16.55;12.52;;;;;;;2.39;100.00;101354.44;4989937;28;20060;-89